sensor_id;sensor_type;location;lat;lon;timestamp;pressure;altitude;pressure_sealevel;temperature;humidity
71770;BME280;66386;52.122;5.420;2023-07-09T00:01:15;101782.94;;;23.08;71.62
71770;BME280;66386;52.122;5.420;2023-07-09T00:03:47;101783.66;;;22.99;72.02
71770;BME280;66386;52.122;5.420;2023-07-09T00:06:20;101783.75;;;22.97;71.97
71770;BME280;66386;52.122;5.420;2023-07-09T00:08:48;101784.09;;;22.93;71.76
71770;BME280;66386;52.122;5.420;2023-07-09T00:11:16;101782.53;;;22.90;71.92
71770;BME280;66386;52.122;5.420;2023-07-09T00:13:43;101779.09;;;22.90;72.19
71770;BME280;66386;52.122;5.420;2023-07-09T00:16:23;101783.72;;;22.86;71.96
71770;BME280;66386;52.122;5.420;2023-07-09T00:18:50;101784.06;;;22.81;71.87
71770;BME280;66386;52.122;5.420;2023-07-09T00:21:18;101793.91;;;22.78;72.22
71770;BME280;66386;52.122;5.420;2023-07-09T00:23:46;101801.31;;;22.73;72.30
71770;BME280;66386;52.122;5.420;2023-07-09T00:26:16;101796.50;;;22.66;72.66
71770;BME280;66386;52.122;5.420;2023-07-09T00:28:43;101808.06;;;22.64;72.57
71770;BME280;66386;52.122;5.420;2023-07-09T00:31:12;101803.25;;;22.58;72.47
71770;BME280;66386;52.122;5.420;2023-07-09T00:33:42;101801.81;;;22.54;72.44
71770;BME280;66386;52.122;5.420;2023-07-09T00:36:22;101803.09;;;22.48;72.45
71770;BME280;66386;52.122;5.420;2023-07-09T00:38:51;101801.50;;;22.45;72.17
71770;BME280;66386;52.122;5.420;2023-07-09T00:41:21;101803.53;;;22.42;72.49
71770;BME280;66386;52.122;5.420;2023-07-09T00:43:49;101809.00;;;22.39;72.41
71770;BME280;66386;52.122;5.420;2023-07-09T00:48:49;101813.19;;;22.28;72.88
71770;BME280;66386;52.122;5.420;2023-07-09T00:51:19;101809.09;;;22.24;73.19
71770;BME280;66386;52.122;5.420;2023-07-09T00:53:49;101810.88;;;22.24;73.34
71770;BME280;66386;52.122;5.420;2023-07-09T00:56:33;101825.75;;;22.23;72.75
71770;BME280;66386;52.122;5.420;2023-07-09T00:59:05;101819.91;;;22.20;72.98
71770;BME280;66386;52.122;5.420;2023-07-09T01:01:34;101820.22;;;22.15;72.92
71770;BME280;66386;52.122;5.420;2023-07-09T01:04:02;101829.03;;;22.14;73.06
71770;BME280;66386;52.122;5.420;2023-07-09T01:06:36;101824.84;;;22.11;73.15
71770;BME280;66386;52.122;5.420;2023-07-09T01:09:04;101823.38;;;22.07;73.11
71770;BME280;66386;52.122;5.420;2023-07-09T01:11:33;101816.47;;;22.06;73.10
71770;BME280;66386;52.122;5.420;2023-07-09T01:14:02;101813.00;;;22.06;72.99
71770;BME280;66386;52.122;5.420;2023-07-09T01:16:41;101814.16;;;22.02;73.63
71770;BME280;66386;52.122;5.420;2023-07-09T01:19:08;101812.00;;;21.95;73.75
71770;BME280;66386;52.122;5.420;2023-07-09T01:21:35;101809.47;;;21.94;74.16
71770;BME280;66386;52.122;5.420;2023-07-09T01:24:13;101806.16;;;21.92;73.68
71770;BME280;66386;52.122;5.420;2023-07-09T01:26:46;101805.28;;;21.91;73.68
71770;BME280;66386;52.122;5.420;2023-07-09T01:29:13;101809.06;;;21.87;73.91
71770;BME280;66386;52.122;5.420;2023-07-09T01:31:39;101810.25;;;21.83;74.02
71770;BME280;66386;52.122;5.420;2023-07-09T01:34:06;101813.78;;;21.82;74.08
71770;BME280;66386;52.122;5.420;2023-07-09T01:36:32;101810.53;;;21.78;74.07
71770;BME280;66386;52.122;5.420;2023-07-09T01:39:00;101804.69;;;21.75;74.59
71770;BME280;66386;52.122;5.420;2023-07-09T01:41:26;101806.59;;;21.73;74.71
71770;BME280;66386;52.122;5.420;2023-07-09T01:43:53;101810.84;;;21.74;74.79
71770;BME280;66386;52.122;5.420;2023-07-09T01:46:19;101814.44;;;21.73;74.74
71770;BME280;66386;52.122;5.420;2023-07-09T01:48:47;101811.38;;;21.66;75.15
71770;BME280;66386;52.122;5.420;2023-07-09T01:51:20;101810.66;;;21.64;74.83
71770;BME280;66386;52.122;5.420;2023-07-09T01:53:46;101819.66;;;21.60;75.11
71770;BME280;66386;52.122;5.420;2023-07-09T01:56:13;101821.63;;;21.56;75.41
71770;BME280;66386;52.122;5.420;2023-07-09T01:58:39;101823.31;;;21.57;75.31
71770;BME280;66386;52.122;5.420;2023-07-09T02:01:09;101827.94;;;21.54;75.43
71770;BME280;66386;52.122;5.420;2023-07-09T02:03:36;101829.06;;;21.50;76.13
71770;BME280;66386;52.122;5.420;2023-07-09T02:06:04;101822.56;;;21.42;75.86
71770;BME280;66386;52.122;5.420;2023-07-09T02:08:36;101820.03;;;21.41;76.54
71770;BME280;66386;52.122;5.420;2023-07-09T02:11:03;101821.06;;;21.38;76.14
71770;BME280;66386;52.122;5.420;2023-07-09T02:13:30;101815.97;;;21.37;76.14
71770;BME280;66386;52.122;5.420;2023-07-09T02:15:57;101822.13;;;21.36;76.75
71770;BME280;66386;52.122;5.420;2023-07-09T02:18:24;101817.31;;;21.30;76.76
71770;BME280;66386;52.122;5.420;2023-07-09T02:20:50;101825.16;;;21.30;76.75
71770;BME280;66386;52.122;5.420;2023-07-09T02:23:17;101821.81;;;21.27;76.78
71770;BME280;66386;52.122;5.420;2023-07-09T02:25:43;101825.47;;;21.25;76.52
71770;BME280;66386;52.122;5.420;2023-07-09T02:28:10;101823.97;;;21.21;76.91
71770;BME280;66386;52.122;5.420;2023-07-09T02:30:36;101821.47;;;21.19;76.97
71770;BME280;66386;52.122;5.420;2023-07-09T02:33:03;101817.38;;;21.15;76.61
71770;BME280;66386;52.122;5.420;2023-07-09T02:35:29;101814.88;;;21.14;76.81
71770;BME280;66386;52.122;5.420;2023-07-09T02:37:56;101822.09;;;21.10;77.15
71770;BME280;66386;52.122;5.420;2023-07-09T02:40:22;101817.03;;;21.07;77.26
71770;BME280;66386;52.122;5.420;2023-07-09T02:42:49;101809.41;;;21.04;76.92
71770;BME280;66386;52.122;5.420;2023-07-09T02:45:15;101815.59;;;21.03;77.19
71770;BME280;66386;52.122;5.420;2023-07-09T02:47:42;101811.41;;;21.00;77.00
71770;BME280;66386;52.122;5.420;2023-07-09T02:50:08;101810.63;;;20.98;77.09
71770;BME280;66386;52.122;5.420;2023-07-09T02:52:35;101818.69;;;20.95;77.09
71770;BME280;66386;52.122;5.420;2023-07-09T02:55:02;101814.41;;;20.94;76.61
71770;BME280;66386;52.122;5.420;2023-07-09T02:57:28;101815.44;;;20.91;76.88
71770;BME280;66386;52.122;5.420;2023-07-09T02:59:55;101817.31;;;20.89;77.12
71770;BME280;66386;52.122;5.420;2023-07-09T03:02:21;101819.41;;;20.84;77.33
71770;BME280;66386;52.122;5.420;2023-07-09T03:04:48;101817.91;;;20.80;77.36
71770;BME280;66386;52.122;5.420;2023-07-09T03:07:15;101818.94;;;20.78;77.88
71770;BME280;66386;52.122;5.420;2023-07-09T03:09:41;101817.19;;;20.78;77.90
71770;BME280;66386;52.122;5.420;2023-07-09T03:12:08;101819.78;;;20.78;77.92
71770;BME280;66386;52.122;5.420;2023-07-09T03:14:35;101818.13;;;20.77;77.93
71770;BME280;66386;52.122;5.420;2023-07-09T03:17:02;101820.94;;;20.74;77.87
71770;BME280;66386;52.122;5.420;2023-07-09T03:19:29;101826.34;;;20.71;77.90
71770;BME280;66386;52.122;5.420;2023-07-09T03:21:56;101826.34;;;20.71;78.29
71770;BME280;66386;52.122;5.420;2023-07-09T03:24:22;101821.22;;;20.69;78.50
71770;BME280;66386;52.122;5.420;2023-07-09T03:26:49;101826.66;;;20.66;78.37
71770;BME280;66386;52.122;5.420;2023-07-09T03:29:15;101828.69;;;20.61;78.58
71770;BME280;66386;52.122;5.420;2023-07-09T03:31:42;101827.00;;;20.60;78.60
71770;BME280;66386;52.122;5.420;2023-07-09T03:34:09;101827.09;;;20.58;78.71
71770;BME280;66386;52.122;5.420;2023-07-09T03:36:35;101834.00;;;20.60;78.41
71770;BME280;66386;52.122;5.420;2023-07-09T03:39:04;101829.81;;;20.57;78.30
71770;BME280;66386;52.122;5.420;2023-07-09T03:41:32;101828.03;;;20.57;78.40
71770;BME280;66386;52.122;5.420;2023-07-09T03:43:59;101824.56;;;20.57;78.79
71770;BME280;66386;52.122;5.420;2023-07-09T03:46:26;101828.03;;;20.57;78.65
71770;BME280;66386;52.122;5.420;2023-07-09T03:48:52;101828.78;;;20.60;78.37
71770;BME280;66386;52.122;5.420;2023-07-09T03:51:19;101816.63;;;20.58;79.13
71770;BME280;66386;52.122;5.420;2023-07-09T03:53:45;101831.38;;;20.60;78.75
71770;BME280;66386;52.122;5.420;2023-07-09T03:56:12;101833.28;;;20.57;78.94
71770;BME280;66386;52.122;5.420;2023-07-09T03:58:38;101827.84;;;20.61;78.76
71770;BME280;66386;52.122;5.420;2023-07-09T04:01:05;101830.34;;;20.62;78.75
71770;BME280;66386;52.122;5.420;2023-07-09T04:03:32;101838.09;;;20.64;78.71
71770;BME280;66386;52.122;5.420;2023-07-09T04:05:58;101836.31;;;20.64;78.61
71770;BME280;66386;52.122;5.420;2023-07-09T04:08:25;101836.22;;;20.66;78.66
71770;BME280;66386;52.122;5.420;2023-07-09T04:10:58;101833.44;;;20.69;78.45
71770;BME280;66386;52.122;5.420;2023-07-09T04:13:26;101835.13;;;20.70;78.62
71770;BME280;66386;52.122;5.420;2023-07-09T04:15:55;101839.41;;;20.71;78.48
71770;BME280;66386;52.122;5.420;2023-07-09T04:18:22;101838.56;;;20.70;78.75
71770;BME280;66386;52.122;5.420;2023-07-09T04:20:49;101838.38;;;20.73;78.54
71770;BME280;66386;52.122;5.420;2023-07-09T04:23:17;101838.19;;;20.77;78.17
71770;BME280;66386;52.122;5.420;2023-07-09T04:25:44;101831.06;;;20.79;78.18
71770;BME280;66386;52.122;5.420;2023-07-09T04:28:11;101840.50;;;20.81;78.49
71770;BME280;66386;52.122;5.420;2023-07-09T04:30:38;101835.16;;;20.83;78.31
71770;BME280;66386;52.122;5.420;2023-07-09T04:33:05;101840.91;;;20.88;78.61
71770;BME280;66386;52.122;5.420;2023-07-09T04:35:32;101839.06;;;20.90;78.31
71770;BME280;66386;52.122;5.420;2023-07-09T04:37:58;101837.94;;;20.94;77.69
71770;BME280;66386;52.122;5.420;2023-07-09T04:40:25;101835.13;;;20.97;77.82
71770;BME280;66386;52.122;5.420;2023-07-09T04:42:51;101830.72;;;20.98;78.25
71770;BME280;66386;52.122;5.420;2023-07-09T04:45:18;101836.69;;;21.00;78.50
71770;BME280;66386;52.122;5.420;2023-07-09T04:47:44;101833.88;;;21.03;79.07
71770;BME280;66386;52.122;5.420;2023-07-09T04:50:11;101834.41;;;21.08;79.29
71770;BME280;66386;52.122;5.420;2023-07-09T04:52:38;101840.19;;;21.13;78.75
71770;BME280;66386;52.122;5.420;2023-07-09T04:55:05;101842.59;;;21.16;79.13
71770;BME280;66386;52.122;5.420;2023-07-09T04:57:32;101836.94;;;21.22;78.99
71770;BME280;66386;52.122;5.420;2023-07-09T04:59:58;101836.75;;;21.25;78.74
71770;BME280;66386;52.122;5.420;2023-07-09T05:02:25;101836.53;;;21.28;78.64
71770;BME280;66386;52.122;5.420;2023-07-09T05:04:52;101834.47;;;21.34;78.45
71770;BME280;66386;52.122;5.420;2023-07-09T05:07:18;101818.66;;;21.35;77.92
71770;BME280;66386;52.122;5.420;2023-07-09T05:09:45;101826.94;;;21.42;77.46
71770;BME280;66386;52.122;5.420;2023-07-09T05:12:11;101816.28;;;21.45;77.62
71770;BME280;66386;52.122;5.420;2023-07-09T05:14:38;101823.06;;;21.48;77.96
71770;BME280;66386;52.122;5.420;2023-07-09T05:17:05;101824.47;;;21.53;78.10
71770;BME280;66386;52.122;5.420;2023-07-09T05:19:32;101829.16;;;21.61;77.53
71770;BME280;66386;52.122;5.420;2023-07-09T05:21:59;101828.66;;;21.69;77.83
71770;BME280;66386;52.122;5.420;2023-07-09T05:24:25;101831.69;;;21.75;78.02
71770;BME280;66386;52.122;5.420;2023-07-09T05:26:54;101827.81;;;21.81;78.11
71770;BME280;66386;52.122;5.420;2023-07-09T05:29:22;101828.13;;;21.89;78.00
71770;BME280;66386;52.122;5.420;2023-07-09T05:31:48;101836.25;;;21.97;77.51
71770;BME280;66386;52.122;5.420;2023-07-09T05:34:15;101819.41;;;22.02;77.05
71770;BME280;66386;52.122;5.420;2023-07-09T05:36:41;101831.75;;;22.12;75.30
71770;BME280;66386;52.122;5.420;2023-07-09T05:39:08;101821.16;;;22.27;77.08
71770;BME280;66386;52.122;5.420;2023-07-09T05:41:34;101825.31;;;22.42;76.04
71770;BME280;66386;52.122;5.420;2023-07-09T05:44:01;101825.59;;;22.51;76.25
71770;BME280;66386;52.122;5.420;2023-07-09T05:46:28;101821.59;;;22.58;74.71
71770;BME280;66386;52.122;5.420;2023-07-09T05:48:54;101823.78;;;22.64;73.63
71770;BME280;66386;52.122;5.420;2023-07-09T05:51:21;101832.88;;;22.71;72.94
71770;BME280;66386;52.122;5.420;2023-07-09T05:53:50;101833.09;;;22.68;73.37
71770;BME280;66386;52.122;5.420;2023-07-09T05:56:17;101845.22;;;22.69;74.73
71770;BME280;66386;52.122;5.420;2023-07-09T05:58:43;101848.69;;;22.70;74.89
71770;BME280;66386;52.122;5.420;2023-07-09T06:01:10;101840.16;;;22.79;74.53
71770;BME280;66386;52.122;5.420;2023-07-09T06:03:36;101847.44;;;22.87;74.44
71770;BME280;66386;52.122;5.420;2023-07-09T06:06:03;101841.88;;;23.51;73.37
71770;BME280;66386;52.122;5.420;2023-07-09T06:08:30;101847.75;;;24.11;70.87
71770;BME280;66386;52.122;5.420;2023-07-09T06:10:59;101839.88;;;24.00;70.84
71770;BME280;66386;52.122;5.420;2023-07-09T06:13:28;101839.31;;;23.96;70.87
71770;BME280;66386;52.122;5.420;2023-07-09T06:15:58;101849.31;;;24.02;71.94
71770;BME280;66386;52.122;5.420;2023-07-09T06:18:26;101846.91;;;24.11;71.56
71770;BME280;66386;52.122;5.420;2023-07-09T06:20:58;101852.06;;;24.79;69.66
71770;BME280;66386;52.122;5.420;2023-07-09T06:23:25;101850.75;;;25.38;68.38
71770;BME280;66386;52.122;5.420;2023-07-09T06:25:52;101852.22;;;25.83;66.26
71770;BME280;66386;52.122;5.420;2023-07-09T06:28:24;101853.19;;;26.22;65.15
71770;BME280;66386;52.122;5.420;2023-07-09T06:30:51;101853.06;;;26.74;63.58
71770;BME280;66386;52.122;5.420;2023-07-09T06:33:18;101857.34;;;27.05;62.10
71770;BME280;66386;52.122;5.420;2023-07-09T06:35:47;101863.00;;;27.39;61.95
71770;BME280;66386;52.122;5.420;2023-07-09T06:38:14;101855.50;;;27.54;59.93
71770;BME280;66386;52.122;5.420;2023-07-09T06:40:41;101853.84;;;27.43;59.82
71770;BME280;66386;52.122;5.420;2023-07-09T06:43:07;101857.13;;;27.55;60.07
71770;BME280;66386;52.122;5.420;2023-07-09T06:45:34;101859.00;;;27.82;59.31
71770;BME280;66386;52.122;5.420;2023-07-09T06:48:00;101864.22;;;28.02;58.45
71770;BME280;66386;52.122;5.420;2023-07-09T06:50:27;101863.09;;;27.95;58.75
71770;BME280;66386;52.122;5.420;2023-07-09T06:52:54;101872.13;;;28.02;59.46
71770;BME280;66386;52.122;5.420;2023-07-09T06:55:21;101864.03;;;28.13;59.12
71770;BME280;66386;52.122;5.420;2023-07-09T06:57:47;101862.41;;;28.30;58.98
71770;BME280;66386;52.122;5.420;2023-07-09T07:00:14;101859.59;;;28.32;57.49
71770;BME280;66386;52.122;5.420;2023-07-09T07:02:41;101862.56;;;28.47;58.04
71770;BME280;66386;52.122;5.420;2023-07-09T07:05:08;101869.09;;;28.25;58.36
71770;BME280;66386;52.122;5.420;2023-07-09T07:07:35;101865.34;;;28.27;60.32
71770;BME280;66386;52.122;5.420;2023-07-09T07:10:01;101865.50;;;28.44;59.55
71770;BME280;66386;52.122;5.420;2023-07-09T07:12:41;101864.25;;;28.48;59.18
71770;BME280;66386;52.122;5.420;2023-07-09T07:15:16;101860.59;;;28.49;59.88
71770;BME280;66386;52.122;5.420;2023-07-09T07:17:43;101866.94;;;28.56;60.81
71770;BME280;66386;52.122;5.420;2023-07-09T07:20:10;101864.13;;;28.67;60.18
71770;BME280;66386;52.122;5.420;2023-07-09T07:22:38;101849.94;;;28.59;59.03
71770;BME280;66386;52.122;5.420;2023-07-09T07:25:05;101848.69;;;28.81;59.17
71770;BME280;66386;52.122;5.420;2023-07-09T07:27:34;101852.22;;;29.07;59.08
71770;BME280;66386;52.122;5.420;2023-07-09T07:30:01;101851.72;;;29.30;56.21
71770;BME280;66386;52.122;5.420;2023-07-09T07:32:28;101855.34;;;29.55;58.20
71770;BME280;66386;52.122;5.420;2023-07-09T07:34:54;101863.72;;;29.69;56.80
71770;BME280;66386;52.122;5.420;2023-07-09T07:37:21;101862.16;;;29.58;55.52
71770;BME280;66386;52.122;5.420;2023-07-09T07:39:48;101856.50;;;29.79;55.57
71770;BME280;66386;52.122;5.420;2023-07-09T07:42:14;101861.56;;;29.99;56.85
71770;BME280;66386;52.122;5.420;2023-07-09T07:44:41;101859.13;;;30.14;55.03
71770;BME280;66386;52.122;5.420;2023-07-09T07:47:08;101872.75;;;30.35;54.06
71770;BME280;66386;52.122;5.420;2023-07-09T07:49:34;101868.28;;;30.27;54.36
71770;BME280;66386;52.122;5.420;2023-07-09T07:52:00;101865.13;;;30.32;53.13
71770;BME280;66386;52.122;5.420;2023-07-09T07:54:30;101870.34;;;30.50;51.81
71770;BME280;66386;52.122;5.420;2023-07-09T07:57:00;101868.53;;;30.67;52.43
71770;BME280;66386;52.122;5.420;2023-07-09T07:59:26;101868.84;;;30.56;51.71
71770;BME280;66386;52.122;5.420;2023-07-09T08:01:52;101866.19;;;30.72;51.75
71770;BME280;66386;52.122;5.420;2023-07-09T08:04:19;101861.75;;;30.97;52.70
71770;BME280;66386;52.122;5.420;2023-07-09T08:06:46;101863.72;;;31.28;51.44
71770;BME280;66386;52.122;5.420;2023-07-09T08:09:12;101870.78;;;31.53;51.26
71770;BME280;66386;52.122;5.420;2023-07-09T08:11:40;101862.31;;;31.74;50.03
71770;BME280;66386;52.122;5.420;2023-07-09T08:14:06;101862.03;;;31.92;49.04
71770;BME280;66386;52.122;5.420;2023-07-09T08:16:33;101871.97;;;32.06;49.60
71770;BME280;66386;52.122;5.420;2023-07-09T08:18:59;101866.78;;;32.44;48.76
71770;BME280;66386;52.122;5.420;2023-07-09T08:21:26;101860.03;;;33.18;47.12
71770;BME280;66386;52.122;5.420;2023-07-09T08:23:53;101863.00;;;33.23;46.45
71770;BME280;66386;52.122;5.420;2023-07-09T08:26:19;101860.75;;;33.12;43.37
71770;BME280;66386;52.122;5.420;2023-07-09T08:28:46;101858.06;;;32.97;45.90
71770;BME280;66386;52.122;5.420;2023-07-09T08:31:12;101867.81;;;33.04;46.33
71770;BME280;66386;52.122;5.420;2023-07-09T08:33:39;101862.59;;;33.11;45.59
71770;BME280;66386;52.122;5.420;2023-07-09T08:36:06;101860.13;;;33.10;45.43
71770;BME280;66386;52.122;5.420;2023-07-09T08:38:33;101863.53;;;33.18;45.46
71770;BME280;66386;52.122;5.420;2023-07-09T08:44:07;101855.56;;;33.33;45.92
71770;BME280;66386;52.122;5.420;2023-07-09T08:50:17;101856.66;;;33.54;44.76
71770;BME280;66386;52.122;5.420;2023-07-09T08:52:44;101854.91;;;33.76;42.89
71770;BME280;66386;52.122;5.420;2023-07-09T08:55:15;101852.69;;;33.95;42.38
71770;BME280;66386;52.122;5.420;2023-07-09T08:57:44;101854.88;;;34.06;43.03
71770;BME280;66386;52.122;5.420;2023-07-09T09:02:48;101852.91;;;34.15;42.58
71770;BME280;66386;52.122;5.420;2023-07-09T09:05:18;101845.28;;;34.26;42.74
71770;BME280;66386;52.122;5.420;2023-07-09T09:07:50;101851.44;;;34.27;41.45
71770;BME280;66386;52.122;5.420;2023-07-09T09:10:21;101854.72;;;33.92;41.31
71770;BME280;66386;52.122;5.420;2023-07-09T09:13:08;101853.91;;;34.29;41.54
71770;BME280;66386;52.122;5.420;2023-07-09T09:15:39;101859.94;;;34.59;42.68
71770;BME280;66386;52.122;5.420;2023-07-09T09:18:22;101859.66;;;34.75;40.83
71770;BME280;66386;52.122;5.420;2023-07-09T09:20:55;101854.41;;;34.82;40.09
71770;BME280;66386;52.122;5.420;2023-07-09T09:23:51;101865.09;;;34.82;39.69
71770;BME280;66386;52.122;5.420;2023-07-09T09:26:29;101856.50;;;34.87;39.95
71770;BME280;66386;52.122;5.420;2023-07-09T09:28:57;101857.72;;;34.84;38.69
71770;BME280;66386;52.122;5.420;2023-07-09T09:31:28;101854.97;;;34.77;40.07
71770;BME280;66386;52.122;5.420;2023-07-09T09:33:56;101854.03;;;34.85;39.16
71770;BME280;66386;52.122;5.420;2023-07-09T09:36:25;101850.97;;;34.88;39.56
71770;BME280;66386;52.122;5.420;2023-07-09T09:38:52;101845.78;;;35.08;37.93
71770;BME280;66386;52.122;5.420;2023-07-09T09:41:24;101843.56;;;35.19;39.37
71770;BME280;66386;52.122;5.420;2023-07-09T09:43:54;101845.53;;;35.03;39.43
71770;BME280;66386;52.122;5.420;2023-07-09T09:46:23;101847.31;;;35.24;39.34
71770;BME280;66386;52.122;5.420;2023-07-09T09:48:53;101843.47;;;35.34;38.52
71770;BME280;66386;52.122;5.420;2023-07-09T09:51:20;101840.19;;;35.32;40.11
71770;BME280;66386;52.122;5.420;2023-07-09T09:53:51;101836.50;;;35.33;38.17
71770;BME280;66386;52.122;5.420;2023-07-09T09:56:23;101835.91;;;35.37;38.99
71770;BME280;66386;52.122;5.420;2023-07-09T09:58:53;101825.72;;;35.61;39.06
71770;BME280;66386;52.122;5.420;2023-07-09T10:01:26;101831.25;;;35.59;38.92
71770;BME280;66386;52.122;5.420;2023-07-09T10:03:56;101834.34;;;35.63;38.00
71770;BME280;66386;52.122;5.420;2023-07-09T10:06:37;101828.59;;;35.59;37.68
71770;BME280;66386;52.122;5.420;2023-07-09T10:09:46;101828.34;;;35.54;38.14
71770;BME280;66386;52.122;5.420;2023-07-09T10:12:25;101813.38;;;35.25;37.70
71770;BME280;66386;52.122;5.420;2023-07-09T10:15:04;101816.53;;;35.28;37.22
71770;BME280;66386;52.122;5.420;2023-07-09T10:17:53;101818.81;;;35.32;37.38
71770;BME280;66386;52.122;5.420;2023-07-09T10:20:29;101813.38;;;35.25;36.99
71770;BME280;66386;52.122;5.420;2023-07-09T10:23:13;101807.81;;;35.20;37.06
71770;BME280;66386;52.122;5.420;2023-07-09T10:29:14;101805.50;;;35.45;38.36
71770;BME280;66386;52.122;5.420;2023-07-09T10:34:34;101806.38;;;35.59;39.32
71770;BME280;66386;52.122;5.420;2023-07-09T10:37:13;101811.16;;;35.77;39.19
71770;BME280;66386;52.122;5.420;2023-07-09T10:39:53;101808.56;;;35.84;36.13
71770;BME280;66386;52.122;5.420;2023-07-09T10:42:39;101808.69;;;35.75;37.60
71770;BME280;66386;52.122;5.420;2023-07-09T10:45:12;101807.00;;;35.61;36.32
71770;BME280;66386;52.122;5.420;2023-07-09T10:47:54;101817.59;;;35.34;40.20
71770;BME280;66386;52.122;5.420;2023-07-09T10:50:35;101822.31;;;35.04;40.27
71770;BME280;66386;52.122;5.420;2023-07-09T10:53:43;101816.94;;;35.32;41.67
71770;BME280;66386;52.122;5.420;2023-07-09T10:56:24;101808.09;;;35.32;41.17
71770;BME280;66386;52.122;5.420;2023-07-09T10:59:02;101808.16;;;35.10;42.23
71770;BME280;66386;52.122;5.420;2023-07-09T11:01:36;101815.81;;;34.85;41.33
71770;BME280;66386;52.122;5.420;2023-07-09T11:04:58;101803.69;;;35.17;41.56
71770;BME280;66386;52.122;5.420;2023-07-09T11:07:01;101806.09;;;35.47;42.08
71770;BME280;66386;52.122;5.420;2023-07-09T11:09:33;101823.00;;;35.19;40.87
71770;BME280;66386;52.122;5.420;2023-07-09T11:12:12;101831.25;;;34.68;42.60
71770;BME280;66386;52.122;5.420;2023-07-09T11:15:14;101825.44;;;34.14;42.86
71770;BME280;66386;52.122;5.420;2023-07-09T11:17:45;101819.97;;;33.71;43.25
71770;BME280;66386;52.122;5.420;2023-07-09T11:20:40;101813.63;;;33.57;44.58
71770;BME280;66386;52.122;5.420;2023-07-09T11:23:23;101804.56;;;33.36;45.38
71770;BME280;66386;52.122;5.420;2023-07-09T11:26:14;101796.56;;;33.06;45.96
71770;BME280;66386;52.122;5.420;2023-07-09T11:28:51;101787.44;;;33.16;46.67
71770;BME280;66386;52.122;5.420;2023-07-09T11:31:34;101790.50;;;33.28;45.47
71770;BME280;66386;52.122;5.420;2023-07-09T11:34:08;101792.00;;;33.30;44.93
71770;BME280;66386;52.122;5.420;2023-07-09T11:36:52;101787.28;;;33.32;44.88
71770;BME280;66386;52.122;5.420;2023-07-09T11:42:32;101789.06;;;33.40;44.89
71770;BME280;66386;52.122;5.420;2023-07-09T11:45:08;101796.19;;;33.39;45.75
71770;BME280;66386;52.122;5.420;2023-07-09T11:47:51;101809.91;;;33.36;45.18
71770;BME280;66386;52.122;5.420;2023-07-09T11:50:23;101816.25;;;33.35;45.73
71770;BME280;66386;52.122;5.420;2023-07-09T11:52:58;101804.28;;;33.46;45.89
71770;BME280;66386;52.122;5.420;2023-07-09T11:55:42;101810.63;;;33.60;45.33
71770;BME280;66386;52.122;5.420;2023-07-09T11:58:11;101801.88;;;33.66;44.06
71770;BME280;66386;52.122;5.420;2023-07-09T12:00:40;101804.53;;;33.66;43.68
71770;BME280;66386;52.122;5.420;2023-07-09T12:03:36;101810.31;;;33.85;44.34
71770;BME280;66386;52.122;5.420;2023-07-09T12:06:05;101821.19;;;34.05;45.13
71770;BME280;66386;52.122;5.420;2023-07-09T12:08:37;101828.16;;;33.84;43.76
71770;BME280;66386;52.122;5.420;2023-07-09T12:11:05;101831.38;;;33.50;44.03
71770;BME280;66386;52.122;5.420;2023-07-09T12:13:39;101837.03;;;33.25;44.53
71770;BME280;66386;52.122;5.420;2023-07-09T12:16:25;101838.06;;;33.16;44.24
71770;BME280;66386;52.122;5.420;2023-07-09T12:18:52;101831.25;;;32.98;43.32
71770;BME280;66386;52.122;5.420;2023-07-09T12:21:19;101838.03;;;32.86;45.12
71770;BME280;66386;52.122;5.420;2023-07-09T12:23:46;101848.50;;;32.87;43.87
71770;BME280;66386;52.122;5.420;2023-07-09T12:26:15;101838.31;;;32.91;44.74
71770;BME280;66386;52.122;5.420;2023-07-09T12:28:42;101847.38;;;32.82;44.98
71770;BME280;66386;52.122;5.420;2023-07-09T12:31:14;101845.13;;;32.47;44.17
71770;BME280;66386;52.122;5.420;2023-07-09T12:33:52;101837.84;;;32.41;44.31
71770;BME280;66386;52.122;5.420;2023-07-09T12:36:19;101833.03;;;32.45;43.72
71770;BME280;66386;52.122;5.420;2023-07-09T12:38:49;101826.09;;;32.59;43.15
71770;BME280;66386;52.122;5.420;2023-07-09T12:41:44;101813.78;;;32.58;43.41
71770;BME280;66386;52.122;5.420;2023-07-09T12:44:20;101834.84;;;32.67;43.46
71770;BME280;66386;52.122;5.420;2023-07-09T12:46:48;101829.75;;;32.58;42.74
71770;BME280;66386;52.122;5.420;2023-07-09T12:49:29;101836.28;;;32.32;43.25
71770;BME280;66386;52.122;5.420;2023-07-09T12:51:58;101836.84;;;32.11;44.29
71770;BME280;66386;52.122;5.420;2023-07-09T12:54:24;101836.31;;;32.24;44.37
71770;BME280;66386;52.122;5.420;2023-07-09T12:56:55;101834.19;;;32.42;45.94
71770;BME280;66386;52.122;5.420;2023-07-09T12:59:37;101826.81;;;32.29;45.18
71770;BME280;66386;52.122;5.420;2023-07-09T13:02:19;101825.19;;;32.43;44.58
71770;BME280;66386;52.122;5.420;2023-07-09T13:04:47;101826.31;;;32.49;43.43
71770;BME280;66386;52.122;5.420;2023-07-09T13:09:55;101840.19;;;32.67;43.51
71770;BME280;66386;52.122;5.420;2023-07-09T13:12:30;101833.59;;;32.78;44.01
71770;BME280;66386;52.122;5.420;2023-07-09T13:14:58;101820.66;;;32.75;42.64
71770;BME280;66386;52.122;5.420;2023-07-09T13:17:30;101830.28;;;32.76;43.30
71770;BME280;66386;52.122;5.420;2023-07-09T13:19:57;101829.19;;;32.70;41.48
71770;BME280;66386;52.122;5.420;2023-07-09T13:22:24;101842.59;;;32.54;41.28
71770;BME280;66386;52.122;5.420;2023-07-09T13:24:51;101853.97;;;32.48;41.54
71770;BME280;66386;52.122;5.420;2023-07-09T13:27:17;101862.38;;;32.28;41.95
71770;BME280;66386;52.122;5.420;2023-07-09T13:29:44;101851.84;;;32.03;43.23